createdAt,value
2018-07-02T00:00:12.345Z,101847.33
2018-07-02T00:02:39.279Z,101847.36
2018-07-02T00:05:06.323Z,101843.94
2018-07-02T00:07:33.231Z,101839.57
2018-07-02T00:10:00.156Z,101837.97
2018-07-02T00:12:27.084Z,101837.56
2018-07-02T00:14:54.365Z,101838.06
2018-07-02T00:17:21.316Z,101837.27
2018-07-02T00:19:48.324Z,101833.87
2018-07-02T00:22:15.712Z,101829.53
2018-07-02T00:24:42.640Z,101826.11
2018-07-02T00:27:09.772Z,101828.31
2018-07-02T00:29:36.684Z,101825.72
2018-07-02T00:32:03.626Z,101824.97
2018-07-02T00:34:30.573Z,101822.87
2018-07-02T00:36:57.468Z,101826.02
2018-07-02T00:39:24.416Z,101825.16
2018-07-02T00:41:51.300Z,101829.27
2018-07-02T00:44:18.220Z,101822.11
2018-07-02T00:46:45.177Z,101823.11
2018-07-02T00:49:12.073Z,101815.17
2018-07-02T00:51:39.004Z,101821.00
2018-07-02T00:54:05.924Z,101820.69
2018-07-02T00:56:32.847Z,101823.02
2018-07-02T00:58:59.853Z,101826.60
2018-07-02T01:01:27.550Z,101823.44
2018-07-02T01:03:55.621Z,101823.85
2018-07-02T01:06:22.576Z,101825.84
2018-07-02T01:08:49.502Z,101820.66
2018-07-02T01:11:16.400Z,101818.47
2018-07-02T01:13:43.401Z,101816.66
2018-07-02T01:16:10.321Z,101815.84
2018-07-02T01:18:37.352Z,101809.79
2018-07-02T01:21:04.311Z,101809.39
2018-07-02T01:23:31.215Z,101813.28
2018-07-02T01:25:58.139Z,101816.02
2018-07-02T01:28:25.060Z,101816.16
2018-07-02T01:30:51.974Z,101812.59
2018-07-02T01:33:18.855Z,101813.59
2018-07-02T01:35:45.828Z,101806.91
2018-07-02T01:38:12.720Z,101810.91
2018-07-02T01:40:39.636Z,101810.56
2018-07-02T01:43:06.518Z,101814.58
2018-07-02T01:45:33.419Z,101812.46
2018-07-02T01:48:00.308Z,101813.81
2018-07-02T01:50:27.229Z,101817.19
2018-07-02T01:52:54.164Z,101823.41
2018-07-02T01:55:21.044Z,101823.06
2018-07-02T01:57:47.955Z,101820.59
2018-07-02T02:00:14.877Z,101819.27
2018-07-02T02:02:41.847Z,101811.37
2018-07-02T02:05:08.769Z,101819.31
2018-07-02T02:07:35.681Z,101818.90
2018-07-02T02:10:02.660Z,101816.64
2018-07-02T02:12:29.616Z,101814.03
2018-07-02T02:14:56.524Z,101816.74
2018-07-02T02:17:23.433Z,101818.07
2018-07-02T02:19:50.360Z,101815.00
2018-07-02T02:22:17.220Z,101807.67
2018-07-02T02:24:44.120Z,101805.93
2018-07-02T02:27:11.024Z,101808.47
2018-07-02T02:29:37.924Z,101809.33
2018-07-02T02:32:04.846Z,101801.55
2018-07-02T02:34:31.733Z,101805.66
2018-07-02T02:36:58.656Z,101807.89
2018-07-02T02:39:25.579Z,101796.02
2018-07-02T02:41:52.484Z,101796.41
2018-07-02T02:44:19.398Z,101793.64
2018-07-02T02:46:46.317Z,101796.28
2018-07-02T02:49:13.219Z,101797.66
2018-07-02T02:51:40.123Z,101792.39
2018-07-02T02:54:07.016Z,101795.52
2018-07-02T02:56:33.928Z,101795.84
2018-07-02T02:59:00.820Z,101800.31
2018-07-02T03:01:27.753Z,101802.52
2018-07-02T03:03:54.648Z,101799.49
2018-07-02T03:06:21.553Z,101796.72
2018-07-02T03:08:48.465Z,101796.28
2018-07-02T03:11:15.355Z,101804.59
2018-07-02T03:13:42.251Z,101801.86
2018-07-02T03:16:09.195Z,101798.86
2018-07-02T03:18:36.068Z,101799.27
2018-07-02T03:21:03.135Z,101796.70
2018-07-02T03:23:30.026Z,101799.39
2018-07-02T03:25:56.935Z,101799.39
2018-07-02T03:28:23.825Z,101797.16
2018-07-02T03:30:50.741Z,101798.48
2018-07-02T03:33:17.645Z,101795.51
2018-07-02T03:35:44.555Z,101799.34
2018-07-02T03:38:11.459Z,101793.19
2018-07-02T03:40:38.696Z,101792.30
2018-07-02T03:43:05.600Z,101798.33
2018-07-02T03:45:32.504Z,101795.32
2018-07-02T03:47:59.401Z,101795.64
2018-07-02T03:50:26.313Z,101796.61
2018-07-02T03:52:53.233Z,101791.31
2018-07-02T03:55:20.164Z,101800.48
2018-07-02T03:57:47.074Z,101806.11
2018-07-02T04:00:13.964Z,101797.73
2018-07-02T04:02:40.916Z,101803.01
2018-07-02T04:05:07.815Z,101808.77
2018-07-02T04:07:34.704Z,101813.06
2018-07-02T04:10:01.597Z,101809.26
2018-07-02T04:12:28.489Z,101808.90
2018-07-02T04:14:55.401Z,101810.52
2018-07-02T04:17:22.317Z,101796.77
2018-07-02T04:19:49.190Z,101808.39
2018-07-02T04:22:16.092Z,101809.16
2018-07-02T04:24:42.984Z,101809.56
2018-07-02T04:27:09.877Z,101811.61
2018-07-02T04:29:36.780Z,101806.67
2018-07-02T04:32:03.698Z,101807.63
2018-07-02T04:34:30.609Z,101806.34
2018-07-02T04:36:57.505Z,101809.89
2018-07-02T04:39:24.397Z,101804.58
2018-07-02T04:41:51.300Z,101806.73
2018-07-02T04:44:18.182Z,101803.37
2018-07-02T04:46:45.070Z,101808.38
2018-07-02T04:49:11.972Z,101812.48
2018-07-02T04:51:38.869Z,101809.04
2018-07-02T04:54:05.777Z,101813.14
2018-07-02T04:56:32.666Z,101806.84
2018-07-02T04:58:59.575Z,101811.89
2018-07-02T05:01:26.473Z,101804.30
2018-07-02T05:03:53.366Z,101795.44
2018-07-02T05:06:20.245Z,101801.94
2018-07-02T05:08:47.141Z,101799.84
2018-07-02T05:11:14.009Z,101794.50
2018-07-02T05:13:40.904Z,101800.48
2018-07-02T05:16:07.991Z,101797.19
2018-07-02T05:18:34.938Z,101790.06
2018-07-02T05:21:01.836Z,101791.68
2018-07-02T05:23:28.729Z,101795.22
2018-07-02T05:25:55.617Z,101797.25
2018-07-02T05:28:22.508Z,101796.41
2018-07-02T05:30:49.376Z,101792.81
2018-07-02T05:33:16.260Z,101795.71
2018-07-02T05:35:43.153Z,101793.05
2018-07-02T05:38:10.041Z,101796.30
2018-07-02T05:40:36.928Z,101798.72
2018-07-02T05:43:03.896Z,101792.23
2018-07-02T05:45:30.793Z,101791.30
2018-07-02T05:47:57.885Z,101791.82
2018-07-02T05:50:24.766Z,101796.05
2018-07-02T05:52:51.656Z,101791.53
2018-07-02T05:55:18.528Z,101792.83
2018-07-02T05:57:45.425Z,101788.57
2018-07-02T06:00:12.400Z,101801.20
2018-07-02T06:02:39.270Z,101801.34
2018-07-02T06:05:06.190Z,101802.83
2018-07-02T06:07:33.210Z,101798.42
2018-07-02T06:10:00.076Z,101804.38
2018-07-02T06:12:26.968Z,101792.98
2018-07-02T06:14:53.861Z,101796.58
2018-07-02T06:17:20.740Z,101803.42
2018-07-02T06:19:47.629Z,101797.02
2018-07-02T06:22:14.506Z,101799.87
2018-07-02T06:24:41.425Z,101802.36
2018-07-02T06:27:08.303Z,101798.98
2018-07-02T06:29:35.191Z,101794.50
2018-07-02T06:32:02.074Z,101790.75
2018-07-02T06:34:28.981Z,101796.80
2018-07-02T06:36:55.980Z,101802.42
2018-07-02T06:39:22.882Z,101799.48
2018-07-02T06:41:49.969Z,101798.53
2018-07-02T06:44:16.862Z,101800.00
2018-07-02T06:46:43.748Z,101795.58
2018-07-02T06:49:10.647Z,101791.30
2018-07-02T06:51:37.544Z,101787.61
2018-07-02T06:54:04.673Z,101786.10
2018-07-02T06:56:31.560Z,101787.33
2018-07-02T06:58:58.484Z,101795.56
2018-07-02T07:01:25.375Z,101793.96
2018-07-02T07:03:52.276Z,101791.61
2018-07-02T07:06:19.190Z,101795.25
2018-07-02T07:08:46.118Z,101796.91
2018-07-02T07:11:13.035Z,101793.41
2018-07-02T07:13:39.965Z,101796.37
2018-07-02T07:16:06.942Z,101791.93
2018-07-02T07:18:33.864Z,101788.95
2018-07-02T07:21:00.789Z,101796.45
2018-07-02T07:23:27.698Z,101794.86
2018-07-02T07:25:54.589Z,101799.03
2018-07-02T07:28:21.509Z,101798.59
2018-07-02T07:30:48.409Z,101801.69
2018-07-02T07:33:15.297Z,101796.66
2018-07-02T07:35:42.205Z,101793.11
2018-07-02T07:38:09.106Z,101789.41
2018-07-02T07:40:36.000Z,101790.81
2018-07-02T07:43:02.900Z,101789.19
2018-07-02T07:45:29.801Z,101792.09
2018-07-02T07:47:56.693Z,101793.01
2018-07-02T07:50:23.620Z,101780.78
2018-07-02T07:52:50.542Z,101781.84
2018-07-02T07:55:17.436Z,101776.95
2018-07-02T07:57:44.349Z,101780.72
2018-07-02T08:00:11.267Z,101782.59
2018-07-02T08:02:38.161Z,101775.82
2018-07-02T08:05:05.339Z,101770.63
2018-07-02T08:07:32.199Z,101770.39
2018-07-02T08:09:59.110Z,101768.22
2018-07-02T08:12:26.039Z,101764.45
2018-07-02T08:14:52.932Z,101758.27
2018-07-02T08:17:19.824Z,101764.21
2018-07-02T08:19:46.749Z,101759.67
2018-07-02T08:22:13.629Z,101749.28
2018-07-02T08:24:40.532Z,101751.92
2018-07-02T08:27:07.435Z,101744.48
2018-07-02T08:29:34.358Z,101736.86
2018-07-02T08:32:01.265Z,101747.41
2018-07-02T08:34:28.173Z,101738.92
2018-07-02T08:36:55.074Z,101737.94
2018-07-02T08:39:21.956Z,101739.54
2018-07-02T08:41:48.861Z,101733.52
2018-07-02T08:44:15.808Z,101722.13
2018-07-02T08:49:09.125Z,101728.75
2018-07-02T08:51:36.025Z,101725.02
2018-07-02T08:54:02.942Z,101727.06
2018-07-02T08:56:29.847Z,101726.28
2018-07-02T08:58:56.750Z,101726.09
2018-07-02T09:01:23.650Z,101725.69
2018-07-02T09:03:50.747Z,101728.38
2018-07-02T09:06:17.657Z,101725.69
2018-07-02T09:08:44.565Z,101725.60
2018-07-02T09:11:11.501Z,101723.17
2018-07-02T09:13:38.412Z,101716.42
2018-07-02T09:16:05.342Z,101710.36
2018-07-02T09:18:32.241Z,101710.69
2018-07-02T09:20:59.140Z,101713.37
2018-07-02T09:23:26.033Z,101711.30
2018-07-02T09:25:53.013Z,101703.69
2018-07-02T09:28:19.917Z,101703.79
2018-07-02T09:30:46.821Z,101695.67
2018-07-02T09:33:13.722Z,101697.26
2018-07-02T09:35:40.623Z,101696.46
2018-07-02T09:38:07.531Z,101697.45
2018-07-02T09:40:34.444Z,101690.98
2018-07-02T09:43:01.322Z,101693.47
2018-07-02T09:45:28.238Z,101699.34
2018-07-02T09:47:55.136Z,101702.41
2018-07-02T09:50:22.029Z,101686.25
2018-07-02T09:52:49.076Z,101687.77
2018-07-02T09:55:16.016Z,101689.02
2018-07-02T09:57:42.900Z,101687.53
2018-07-02T10:00:09.788Z,101685.53
2018-07-02T10:02:36.680Z,101683.23
2018-07-02T10:05:03.596Z,101683.19
2018-07-02T10:07:30.496Z,101692.66
2018-07-02T10:09:57.364Z,101687.19
2018-07-02T10:12:24.273Z,101688.62
2018-07-02T10:14:51.140Z,101684.20
2018-07-02T10:17:18.042Z,101683.28
2018-07-02T10:19:44.916Z,101685.28
2018-07-02T10:22:11.792Z,101684.06
2018-07-02T10:24:38.684Z,101683.80
2018-07-02T10:27:05.576Z,101690.18
2018-07-02T10:29:32.438Z,101688.98
2018-07-02T10:31:59.325Z,101685.73
2018-07-02T10:34:26.223Z,101678.09
2018-07-02T10:36:53.128Z,101679.88
2018-07-02T10:39:20.014Z,101675.53
2018-07-02T10:41:46.921Z,101676.45
2018-07-02T10:44:13.813Z,101675.13
2018-07-02T10:46:40.749Z,101669.98
2018-07-02T10:49:07.666Z,101664.27
2018-07-02T10:51:34.576Z,101661.02
2018-07-02T10:54:01.457Z,101660.52
2018-07-02T10:56:28.358Z,101663.34
2018-07-02T10:58:55.273Z,101670.00
2018-07-02T11:01:22.220Z,101660.31
2018-07-02T11:03:49.104Z,101645.98
2018-07-02T11:06:16.025Z,101655.67
2018-07-02T11:08:42.912Z,101649.61
2018-07-02T11:11:09.881Z,101663.34
2018-07-02T11:13:36.717Z,101663.02
2018-07-02T11:16:03.649Z,101661.61
2018-07-02T11:21:04.439Z,101659.89
2018-07-02T11:23:31.332Z,101654.33
2018-07-02T11:25:58.213Z,101647.11
2018-07-02T11:28:25.121Z,101655.55
2018-07-02T11:30:52.010Z,101650.48
2018-07-02T11:33:18.918Z,101651.98
2018-07-02T11:35:45.813Z,101651.80
2018-07-02T11:38:12.685Z,101653.00
2018-07-02T11:40:39.572Z,101646.95
2018-07-02T11:43:06.472Z,101638.53
2018-07-02T11:45:33.843Z,101631.03
2018-07-02T11:48:00.731Z,101620.34
2018-07-02T11:50:27.609Z,101624.23
2018-07-02T11:52:54.490Z,101629.67
2018-07-02T11:55:21.408Z,101622.16
2018-07-02T11:57:48.310Z,101617.42
2018-07-02T12:00:15.181Z,101629.06
2018-07-02T12:02:42.061Z,101625.18
2018-07-02T12:05:08.944Z,101622.69
2018-07-02T12:07:35.864Z,101618.90
2018-07-02T12:10:03.331Z,101615.66
2018-07-02T12:12:30.387Z,101613.69
2018-07-02T12:14:57.262Z,101612.63
2018-07-02T12:17:24.132Z,101608.27
2018-07-02T12:19:50.984Z,101614.80
2018-07-02T12:22:17.866Z,101609.08
2018-07-02T12:24:44.736Z,101613.86
2018-07-02T12:27:11.615Z,101613.05
2018-07-02T12:29:38.488Z,101611.95
2018-07-02T12:32:05.373Z,101604.80
2018-07-02T12:34:32.264Z,101605.56
2018-07-02T12:36:59.153Z,101603.26
2018-07-02T12:39:26.020Z,101609.36
2018-07-02T12:41:52.910Z,101609.97
2018-07-02T12:44:19.789Z,101612.33
2018-07-02T12:46:46.739Z,101606.16
2018-07-02T12:49:13.577Z,101620.56
2018-07-02T12:51:40.470Z,101604.02
2018-07-02T12:54:07.444Z,101609.03
2018-07-02T12:56:34.262Z,101600.15
2018-07-02T12:59:01.149Z,101593.11
2018-07-02T13:01:28.020Z,101593.81
2018-07-02T13:03:54.928Z,101601.14
2018-07-02T13:06:21.869Z,101602.27
2018-07-02T13:08:48.776Z,101591.89
2018-07-02T13:11:15.674Z,101596.06
2018-07-02T13:13:42.547Z,101596.36
2018-07-02T13:16:09.447Z,101599.22
2018-07-02T13:18:36.418Z,101585.20
2018-07-02T13:21:03.293Z,101576.73
2018-07-02T13:23:30.413Z,101581.04
2018-07-02T13:25:57.307Z,101582.37
2018-07-02T13:28:24.712Z,101579.48
2018-07-02T13:30:51.652Z,101569.19
2018-07-02T13:33:18.553Z,101558.70
2018-07-02T13:35:45.464Z,101571.85
2018-07-02T13:38:12.393Z,101568.14
2018-07-02T13:40:39.312Z,101563.16
2018-07-02T13:43:06.233Z,101561.36
2018-07-02T13:45:33.144Z,101562.20
2018-07-02T13:48:00.057Z,101567.80
2018-07-02T13:50:27.005Z,101567.81
2018-07-02T13:52:53.929Z,101560.18
2018-07-02T13:55:20.907Z,101552.34
2018-07-02T13:57:47.778Z,101552.08
2018-07-02T14:00:14.708Z,101549.53
2018-07-02T14:02:41.616Z,101556.15
2018-07-02T14:05:08.714Z,101550.33
2018-07-02T14:07:35.613Z,101549.02
2018-07-02T14:10:02.573Z,101542.20
2018-07-02T14:12:29.472Z,101549.90
2018-07-02T14:14:56.386Z,101539.42
2018-07-02T14:17:23.321Z,101539.75
2018-07-02T14:19:50.276Z,101541.06
2018-07-02T14:22:17.128Z,101534.89
2018-07-02T14:24:44.021Z,101545.80
2018-07-02T14:27:10.944Z,101549.09
2018-07-02T14:29:37.861Z,101541.50
2018-07-02T14:32:04.780Z,101534.66
2018-07-02T14:34:31.709Z,101541.32
2018-07-02T14:36:58.728Z,101543.58
2018-07-02T14:39:25.678Z,101537.81
2018-07-02T14:41:52.553Z,101534.50
2018-07-02T14:44:19.560Z,101532.47
2018-07-02T14:46:46.490Z,101533.19
2018-07-02T14:49:13.401Z,101528.84
2018-07-02T14:51:40.304Z,101525.17
2018-07-02T14:54:07.215Z,101531.67
2018-07-02T14:56:34.132Z,101537.23
2018-07-02T14:59:01.041Z,101530.47
2018-07-02T15:01:27.964Z,101520.02
2018-07-02T15:03:54.884Z,101522.58
2018-07-02T15:06:21.794Z,101522.69
2018-07-02T15:08:48.717Z,101520.59
2018-07-02T15:11:15.633Z,101519.76
2018-07-02T15:13:42.580Z,101531.33
2018-07-02T15:16:09.490Z,101525.50
2018-07-02T15:18:36.424Z,101515.45
2018-07-02T15:21:03.373Z,101517.76
2018-07-02T15:23:30.284Z,101514.38
2018-07-02T15:25:57.225Z,101514.66
2018-07-02T15:28:24.127Z,101505.98
2018-07-02T15:30:51.033Z,101510.53
2018-07-02T15:33:17.937Z,101504.54
2018-07-02T15:35:44.910Z,101512.59
2018-07-02T15:38:11.764Z,101508.39
2018-07-02T15:40:38.662Z,101506.81
2018-07-02T15:43:05.549Z,101504.03
2018-07-02T15:45:32.455Z,101512.45
2018-07-02T15:47:59.351Z,101501.97
2018-07-02T15:50:26.243Z,101501.08
2018-07-02T15:52:54.067Z,101486.94
2018-07-02T15:55:20.968Z,101493.94
2018-07-02T15:57:47.857Z,101502.05
2018-07-02T16:00:14.773Z,101507.16
2018-07-02T16:02:41.676Z,101501.27
2018-07-02T16:05:08.598Z,101500.22
2018-07-02T16:07:35.464Z,101500.75
2018-07-02T16:10:02.371Z,101502.98
2018-07-02T16:12:29.264Z,101497.55
2018-07-02T16:14:56.145Z,101493.07
2018-07-02T16:17:23.059Z,101489.86
2018-07-02T16:19:49.958Z,101487.64
2018-07-02T16:22:16.848Z,101492.48
2018-07-02T16:24:43.740Z,101487.05
2018-07-02T16:27:10.626Z,101486.25
2018-07-02T16:29:37.600Z,101483.92
2018-07-02T16:32:04.522Z,101473.75
2018-07-02T16:34:31.445Z,101482.00
2018-07-02T16:36:58.357Z,101491.61
2018-07-02T16:39:25.285Z,101487.97
2018-07-02T16:41:52.220Z,101485.60
2018-07-02T16:44:19.115Z,101481.33
2018-07-02T16:46:46.052Z,101485.05
2018-07-02T16:49:12.957Z,101485.96
2018-07-02T16:51:39.901Z,101488.13
2018-07-02T16:54:06.804Z,101485.75
2018-07-02T16:56:34.489Z,101487.58
2018-07-02T16:59:01.434Z,101489.38
2018-07-02T17:01:29.151Z,101485.23
2018-07-02T17:03:56.066Z,101489.24
2018-07-02T17:06:23.006Z,101493.23
2018-07-02T17:08:49.986Z,101484.91
2018-07-02T17:11:16.913Z,101489.80
2018-07-02T17:13:43.816Z,101478.76
2018-07-02T17:16:10.769Z,101475.89
2018-07-02T17:18:39.696Z,101471.11
2018-07-02T17:21:06.661Z,101473.70
2018-07-02T17:23:33.599Z,101473.63
2018-07-02T17:26:00.513Z,101473.81
2018-07-02T17:28:27.430Z,101466.58
2018-07-02T17:30:54.374Z,101471.91
2018-07-02T17:33:21.261Z,101473.33
2018-07-02T17:35:48.200Z,101473.80
2018-07-02T17:38:15.097Z,101464.63
2018-07-02T17:40:42.740Z,101465.44
2018-07-02T17:43:09.616Z,101457.52
2018-07-02T17:45:36.518Z,101460.30
2018-07-02T17:48:03.691Z,101462.07
2018-07-02T17:50:30.613Z,101462.41
2018-07-02T17:52:57.512Z,101466.44
2018-07-02T17:55:24.435Z,101463.73
2018-07-02T17:57:51.294Z,101461.88
2018-07-02T18:00:18.208Z,101464.05
2018-07-02T18:02:45.113Z,101460.01
2018-07-02T18:05:11.996Z,101464.05
2018-07-02T18:07:38.920Z,101464.84
2018-07-02T18:10:05.837Z,101464.84
2018-07-02T18:12:32.716Z,101470.11
2018-07-02T18:14:59.630Z,101466.20
2018-07-02T18:17:26.493Z,101465.30
2018-07-02T18:19:53.365Z,101469.44
2018-07-02T18:22:20.684Z,101464.98
2018-07-02T18:24:47.573Z,101472.23
2018-07-02T18:27:14.457Z,101471.41
2018-07-02T18:29:41.324Z,101469.59
2018-07-02T18:32:08.312Z,101466.70
2018-07-02T18:34:35.593Z,101469.04
2018-07-02T18:37:02.485Z,101470.77
2018-07-02T18:39:29.377Z,101466.16
2018-07-02T18:41:56.277Z,101464.60
2018-07-02T18:44:23.239Z,101467.69
2018-07-02T18:46:50.124Z,101471.16
2018-07-02T18:49:17.115Z,101470.00
2018-07-02T18:51:44.016Z,101466.41
2018-07-02T18:54:10.896Z,101465.76
2018-07-02T18:56:37.848Z,101476.13
2018-07-02T18:59:05.157Z,101479.39
2018-07-02T19:01:32.450Z,101480.84
2018-07-02T19:04:01.809Z,101482.46
2018-07-02T19:06:30.419Z,101481.08
2018-07-02T19:08:57.504Z,101485.58
2018-07-02T19:11:24.376Z,101485.58
2018-07-02T19:13:51.341Z,101486.78
2018-07-02T19:16:18.266Z,101489.74
2018-07-02T19:18:45.145Z,101486.41
2018-07-02T19:21:12.028Z,101482.62
2018-07-02T19:23:38.929Z,101489.52
2018-07-02T19:26:05.854Z,101485.34
2018-07-02T19:28:32.815Z,101493.67
2018-07-02T19:30:59.716Z,101497.67
2018-07-02T19:33:26.589Z,101493.38
2018-07-02T19:35:53.547Z,101495.86
2018-07-02T19:38:20.469Z,101502.31
2018-07-02T19:40:47.390Z,101503.45
2018-07-02T19:43:14.303Z,101509.47
2018-07-02T19:45:41.224Z,101504.52
2018-07-02T19:48:08.136Z,101513.00
2018-07-02T19:50:35.025Z,101512.92
2018-07-02T19:53:01.946Z,101506.53
2018-07-02T19:55:28.841Z,101503.63
2018-07-02T19:57:55.745Z,101511.17
2018-07-02T20:00:22.703Z,101510.31
2018-07-02T20:02:49.637Z,101508.75
2018-07-02T20:05:16.502Z,101515.53
2018-07-02T20:07:43.429Z,101510.56
2018-07-02T20:10:10.338Z,101505.34
2018-07-02T20:12:37.263Z,101500.38
2018-07-02T20:15:04.296Z,101502.07
2018-07-02T20:17:31.217Z,101504.37
2018-07-02T20:19:58.146Z,101509.55
2018-07-02T20:22:25.069Z,101515.30
2018-07-02T20:24:51.969Z,101513.58
2018-07-02T20:27:18.884Z,101521.84
2018-07-02T20:29:45.794Z,101516.86
2018-07-02T20:32:12.725Z,101523.71
2018-07-02T20:34:39.652Z,101521.95
2018-07-02T20:37:06.561Z,101520.14
2018-07-02T20:39:33.472Z,101522.70
2018-07-02T20:42:00.409Z,101521.23
2018-07-02T20:44:27.310Z,101515.36
2018-07-02T20:46:54.236Z,101509.76
2018-07-02T20:49:21.146Z,101515.33
2018-07-02T20:51:48.077Z,101518.09
2018-07-02T20:54:14.977Z,101520.39
2018-07-02T20:56:41.882Z,101519.27
2018-07-02T20:59:08.833Z,101524.45
2018-07-02T21:01:35.777Z,101520.15
2018-07-02T21:04:02.990Z,101521.77
2018-07-02T21:06:29.918Z,101521.59
2018-07-02T21:08:56.852Z,101520.71
2018-07-02T21:11:23.761Z,101522.25
2018-07-02T21:13:50.874Z,101518.59
2018-07-02T21:16:17.765Z,101518.34
2018-07-02T21:18:44.690Z,101517.59
2018-07-02T21:21:11.629Z,101523.81
2018-07-02T21:23:38.524Z,101528.19
2018-07-02T21:26:05.590Z,101524.02
2018-07-02T21:28:32.487Z,101528.34
2018-07-02T21:30:59.385Z,101520.94
2018-07-02T21:33:26.288Z,101526.35
2018-07-02T21:35:53.273Z,101529.55
2018-07-02T21:38:20.165Z,101522.38
2018-07-02T21:40:47.053Z,101526.52
2018-07-02T21:43:13.980Z,101528.32
2018-07-02T21:45:40.876Z,101525.78
2018-07-02T21:48:07.779Z,101524.94
2018-07-02T21:50:34.662Z,101527.92
2018-07-02T21:53:01.553Z,101521.77
2018-07-02T21:55:28.513Z,101523.36
2018-07-02T21:57:55.413Z,101521.76
2018-07-02T22:00:22.335Z,101528.14
2018-07-02T22:02:49.217Z,101523.31
2018-07-02T22:05:16.110Z,101528.39
2018-07-02T22:07:42.992Z,101524.58
2018-07-02T22:10:09.872Z,101526.37
2018-07-02T22:12:37.007Z,101531.76
2018-07-02T22:15:03.933Z,101517.52
2018-07-02T22:17:30.825Z,101527.66
2018-07-02T22:19:57.724Z,101519.77
2018-07-02T22:22:24.649Z,101524.81
2018-07-02T22:24:51.569Z,101527.57
2018-07-02T22:27:18.450Z,101520.23
2018-07-02T22:29:45.366Z,101518.28
2018-07-02T22:32:12.240Z,101515.91
2018-07-02T22:34:39.169Z,101513.30
2018-07-02T22:37:06.009Z,101519.53
2018-07-02T22:39:32.900Z,101519.25
2018-07-02T22:41:59.768Z,101518.09
2018-07-02T22:44:26.665Z,101519.38
2018-07-02T22:46:53.548Z,101513.21
2018-07-02T22:49:20.432Z,101521.34
2018-07-02T22:51:47.327Z,101514.59
2018-07-02T22:54:14.269Z,101519.03
2018-07-02T22:56:41.151Z,101515.59
2018-07-02T22:59:08.037Z,101509.16
2018-07-02T23:01:34.972Z,101519.50
2018-07-02T23:04:01.799Z,101516.41
2018-07-02T23:06:28.709Z,101517.06
2018-07-02T23:08:56.848Z,101517.45
2018-07-02T23:11:23.732Z,101518.09
2018-07-02T23:13:51.165Z,101514.31
2018-07-02T23:16:18.033Z,101502.65
2018-07-02T23:18:44.907Z,101516.47
2018-07-02T23:21:11.783Z,101515.88
2018-07-02T23:23:38.685Z,101513.69
2018-07-02T23:26:05.594Z,101508.41
2018-07-02T23:28:32.500Z,101503.10
2018-07-02T23:30:59.416Z,101509.94
2018-07-02T23:33:26.328Z,101515.33
2018-07-02T23:35:53.213Z,101507.98
2018-07-02T23:38:20.109Z,101502.28
2018-07-02T23:40:47.057Z,101515.05
2018-07-02T23:43:13.961Z,101513.52
2018-07-02T23:45:40.861Z,101513.80
2018-07-02T23:48:07.770Z,101511.24
2018-07-02T23:50:34.679Z,101519.05
2018-07-02T23:53:01.579Z,101514.84
2018-07-02T23:55:28.505Z,101513.83
2018-07-02T23:57:55.396Z,101509.22
